createdAt,value
2018-05-09T00:01:06.431Z,48.83
2018-05-09T00:02:16.613Z,49.31
2018-05-09T00:03:26.751Z,49.22
2018-05-09T00:04:36.894Z,49.31
2018-05-09T00:05:46.677Z,49.6
2018-05-09T00:06:56.842Z,49.6
2018-05-09T00:08:06.999Z,50.27
2018-05-09T00:09:17.140Z,50.27
2018-05-09T00:10:27.260Z,50.15
2018-05-09T00:11:37.243Z,50.34
2018-05-09T00:12:47.388Z,50.73
2018-05-09T00:13:57.559Z,50.82
2018-05-09T00:15:07.430Z,51.11
2018-05-09T00:16:17.566Z,50.82
2018-05-09T00:17:27.753Z,51.11
2018-05-09T00:18:37.918Z,51.59
2018-05-09T00:19:48.118Z,51.4
2018-05-09T00:20:58.372Z,51.95
2018-05-09T00:22:08.519Z,52.17
2018-05-09T00:23:18.760Z,52.43
2018-05-09T00:24:28.996Z,52.81
2018-05-09T00:25:39.150Z,52.72
2018-05-09T00:26:49.265Z,52.53
2018-05-09T00:27:59.418Z,52.81
2018-05-09T00:29:09.564Z,53.49
2018-05-09T00:30:19.733Z,53.11
2018-05-09T00:31:29.868Z,53.49
2018-05-09T00:32:40.035Z,53.58
2018-05-09T00:33:50.272Z,53.39
2018-05-09T00:35:00.227Z,53.2
2018-05-09T00:36:10.426Z,54.06
2018-05-09T00:37:20.327Z,54.04
2018-05-09T00:38:30.455Z,54.16
2018-05-09T00:39:40.103Z,54.13
2018-05-09T00:40:50.065Z,54.35
2018-05-09T00:42:00.192Z,54.42
2018-05-09T00:43:10.362Z,54.04
2018-05-09T00:44:20.483Z,54.42
2018-05-09T00:45:33.263Z,54.71
2018-05-09T00:46:43.418Z,54.42
2018-05-09T00:47:53.626Z,54.9
2018-05-09T00:49:03.527Z,54.9
2018-05-09T00:50:13.806Z,55
2018-05-09T00:51:24.178Z,55.1
2018-05-09T00:52:34.366Z,55.19
2018-05-09T00:53:44.010Z,55.29
2018-05-09T00:54:54.159Z,55.35
2018-05-09T00:56:04.029Z,55.26
2018-05-09T00:57:14.250Z,55.55
2018-05-09T00:58:24.469Z,55.55
2018-05-09T00:59:34.642Z,55.35
2018-05-09T01:00:44.845Z,55.74
2018-05-09T01:01:55.047Z,56.02
2018-05-09T01:03:05.171Z,56.51
2018-05-09T01:04:15.307Z,56.41
2018-05-09T01:05:25.448Z,56.41
2018-05-09T01:06:35.602Z,56.89
2018-05-09T01:07:45.817Z,56.6
2018-05-09T01:08:56.006Z,56.51
2018-05-09T01:10:06.141Z,56.79
2018-05-09T01:11:16.291Z,56.89
2018-05-09T01:12:26.574Z,56.51
2018-05-09T01:13:37.085Z,56.51
2018-05-09T01:14:48.194Z,56.7
2018-05-09T01:15:58.337Z,56.6
2018-05-09T01:17:08.217Z,56.98
2018-05-09T01:18:18.372Z,56.79
2018-05-09T01:19:28.240Z,56.89
2018-05-09T01:20:38.407Z,56.96
2018-05-09T01:21:48.540Z,56.98
2018-05-09T01:22:58.712Z,57.06
2018-05-09T01:24:08.574Z,57.28
2018-05-09T01:25:18.733Z,57.37
2018-05-09T01:26:28.887Z,57.34
2018-05-09T01:27:39.034Z,57.24
2018-05-09T01:28:49.183Z,58.01
2018-05-09T01:29:59.326Z,57.72
2018-05-09T01:31:09.093Z,58.3
2018-05-09T01:32:19.231Z,58.49
2018-05-09T01:33:29.382Z,58.39
2018-05-09T01:34:39.532Z,58.59
2018-05-09T01:35:49.673Z,58.59
2018-05-09T01:36:59.812Z,58.97
2018-05-09T01:38:10.042Z,58.78
2018-05-09T01:39:19.942Z,58.97
2018-05-09T01:40:29.858Z,59.06
2018-05-09T01:41:40.013Z,59.45
2018-05-09T01:42:50.141Z,59.06
2018-05-09T01:44:00.328Z,59.36
2018-05-09T01:45:10.525Z,59.36
2018-05-09T01:46:20.383Z,59.55
2018-05-09T01:47:30.520Z,59.74
2018-05-09T01:48:40.648Z,59.64
2018-05-09T01:49:50.882Z,59.74
2018-05-09T01:51:01.131Z,59.74
2018-05-09T01:52:11.341Z,59.83
2018-05-09T01:53:21.634Z,59.83
2018-05-09T01:54:31.818Z,60.09
2018-05-09T01:55:41.624Z,60.12
2018-05-09T01:56:51.747Z,60.09
2018-05-09T01:58:01.893Z,60.09
2018-05-09T01:59:12.243Z,60.47
2018-05-09T02:00:22.625Z,60.57
2018-05-09T02:01:32.788Z,60.57
2018-05-09T02:02:42.934Z,60.76
2018-05-09T02:03:52.726Z,60.47
2018-05-09T02:05:02.858Z,60.76
2018-05-09T02:06:13.199Z,61.05
2018-05-09T02:07:23.347Z,60.96
2018-05-09T02:08:33.681Z,61.05
2018-05-09T02:09:43.830Z,61.05
2018-05-09T02:10:54.208Z,61.53
2018-05-09T02:12:04.352Z,61.72
2018-05-09T02:13:14.749Z,61.15
2018-05-09T02:14:24.539Z,61.24
2018-05-09T02:15:34.717Z,61.82
2018-05-09T02:16:45.059Z,61.72
2018-05-09T02:17:55.221Z,61.72
2018-05-09T02:19:05.367Z,61.79
2018-05-09T02:20:15.505Z,61.34
2018-05-09T02:21:25.284Z,61.43
2018-05-09T02:22:35.453Z,61.82
2018-05-09T02:23:45.636Z,61.63
2018-05-09T02:24:55.798Z,61.72
2018-05-09T02:26:05.681Z,61.72
2018-05-09T02:27:15.902Z,61.63
2018-05-09T02:28:25.764Z,62.01
2018-05-09T02:29:35.943Z,61.88
2018-05-09T02:30:46.163Z,62.36
2018-05-09T02:31:56.322Z,62.39
2018-05-09T02:33:06.566Z,62.26
2018-05-09T02:34:17.040Z,61.98
2018-05-09T02:35:26.924Z,62.07
2018-05-09T02:36:37.264Z,62.65
2018-05-09T02:37:47.421Z,62.46
2018-05-09T02:38:57.536Z,62.55
2018-05-09T02:40:07.665Z,62.55
2018-05-09T02:41:17.798Z,62.65
2018-05-09T02:42:27.680Z,62.36
2018-05-09T02:43:37.687Z,62.65
2018-05-09T02:44:47.748Z,62.46
2018-05-09T02:45:57.889Z,62.46
2018-05-09T02:47:08.030Z,62.93
2018-05-09T02:48:18.179Z,62.65
2018-05-09T02:49:28.318Z,63.22
2018-05-09T02:50:38.458Z,63.32
2018-05-09T02:51:48.606Z,63.42
2018-05-09T02:52:58.875Z,63.32
2018-05-09T02:54:09.358Z,63.32
2018-05-09T02:55:19.557Z,63.51
2018-05-09T02:56:29.687Z,63.13
2018-05-09T02:57:39.737Z,63.13
2018-05-09T02:58:49.864Z,63.22
2018-05-09T02:59:59.995Z,63.32
2018-05-09T03:01:09.929Z,63.32
2018-05-09T03:02:19.900Z,63.51
2018-05-09T03:03:29.516Z,63.13
2018-05-09T03:04:39.640Z,63.8
2018-05-09T03:05:49.775Z,63.76
2018-05-09T03:06:59.959Z,63.76
2018-05-09T03:08:10.105Z,63.67
2018-05-09T03:09:20.244Z,63.96
2018-05-09T03:10:30.409Z,64.15
2018-05-09T03:11:40.537Z,63.99
2018-05-09T03:12:50.753Z,63.99
2018-05-09T03:14:00.902Z,64.05
2018-05-09T03:15:11.184Z,63.96
2018-05-09T03:16:21.375Z,63.76
2018-05-09T03:17:31.778Z,63.76
2018-05-09T03:18:41.912Z,63.67
2018-05-09T03:19:52.052Z,63.42
2018-05-09T03:21:02.291Z,63.13
2018-05-09T03:22:12.442Z,63.7
2018-05-09T03:23:22.592Z,63.29
2018-05-09T03:24:32.742Z,63.19
2018-05-09T03:25:42.870Z,63.22
2018-05-09T03:26:53.070Z,63.13
2018-05-09T03:28:03.227Z,63.39
2018-05-09T03:29:13.431Z,63.32
2018-05-09T03:30:23.577Z,63.22
2018-05-09T03:31:33.739Z,63.22
2018-05-09T03:32:43.951Z,63.42
2018-05-09T03:33:54.091Z,63.32
2018-05-09T03:35:04.118Z,63.22
2018-05-09T03:36:14.287Z,63.29
2018-05-09T03:37:24.470Z,63.51
2018-05-09T03:38:34.960Z,63.13
2018-05-09T03:39:45.099Z,63.7
2018-05-09T03:40:55.307Z,63.89
2018-05-09T03:42:05.457Z,63.86
2018-05-09T03:43:15.596Z,64.15
2018-05-09T03:44:25.747Z,64.25
2018-05-09T03:45:36.036Z,63.96
2018-05-09T03:46:46.175Z,64.15
2018-05-09T03:47:56.316Z,64.25
2018-05-09T03:49:06.546Z,64.53
2018-05-09T03:50:16.932Z,64.53
2018-05-09T03:51:27.063Z,64.15
2018-05-09T03:52:36.963Z,64.25
2018-05-09T03:53:47.109Z,64.25
2018-05-09T03:54:56.974Z,64.34
2018-05-09T03:56:07.133Z,64.15
2018-05-09T03:57:17.277Z,63.76
2018-05-09T03:58:27.446Z,63.86
2018-05-09T03:59:37.680Z,63.76
2018-05-09T04:00:48.084Z,63.67
2018-05-09T04:01:57.868Z,63.86
2018-05-09T04:03:07.633Z,63.86
2018-05-09T04:04:17.754Z,63.76
2018-05-09T04:05:27.943Z,63.86
2018-05-09T04:06:38.134Z,63.96
2018-05-09T04:07:48.311Z,64.34
2018-05-09T04:08:58.487Z,63.96
2018-05-09T04:10:08.677Z,64.15
2018-05-09T04:11:18.975Z,64.53
2018-05-09T04:12:29.127Z,64.53
2018-05-09T04:13:39.014Z,64.63
2018-05-09T04:14:48.849Z,64.43
2018-05-09T04:15:59.290Z,64.15
2018-05-09T04:17:09.438Z,64.34
2018-05-09T04:18:19.569Z,64.34
2018-05-09T04:19:29.939Z,64.15
2018-05-09T04:20:40.246Z,64.05
2018-05-09T04:21:50.610Z,64.05
2018-05-09T04:23:00.768Z,64.25
2018-05-09T04:24:11.885Z,64.25
2018-05-09T04:25:22.019Z,64.72
2018-05-09T04:26:32.159Z,63.86
2018-05-09T04:27:42.307Z,64.43
2018-05-09T04:28:52.432Z,63.86
2018-05-09T04:30:02.290Z,64.72
2018-05-09T04:31:12.414Z,64.63
2018-05-09T04:32:22.583Z,64.72
2018-05-09T04:33:32.718Z,64.72
2018-05-09T04:34:42.894Z,64.72
2018-05-09T04:35:53.139Z,65.11
2018-05-09T04:37:03.339Z,65.11
2018-05-09T04:38:13.507Z,65.11
2018-05-09T04:39:23.727Z,65.01
2018-05-09T04:40:33.869Z,64.72
2018-05-09T04:41:44.006Z,64.63
2018-05-09T04:42:54.206Z,64.53
2018-05-09T04:44:03.986Z,64.43
2018-05-09T04:45:14.105Z,64.43
2018-05-09T04:46:24.257Z,64.43
2018-05-09T04:47:34.460Z,64.53
2018-05-09T04:48:44.633Z,64.47
2018-05-09T04:49:54.843Z,63.86
2018-05-09T04:51:05.031Z,64.15
2018-05-09T04:52:16.503Z,64.15
2018-05-09T04:53:26.375Z,64.43
2018-05-09T04:54:36.547Z,64.53
2018-05-09T04:55:46.433Z,64.66
2018-05-09T04:56:56.689Z,64.47
2018-05-09T04:58:06.851Z,64.28
2018-05-09T04:59:16.993Z,64.37
2018-05-09T05:00:27.232Z,64.18
2018-05-09T05:01:37.464Z,64.18
2018-05-09T05:02:47.356Z,64.18
2018-05-09T05:03:57.523Z,64.18
2018-05-09T05:05:07.672Z,64.28
2018-05-09T05:06:17.480Z,64.28
2018-05-09T05:07:27.762Z,63.99
2018-05-09T05:08:37.960Z,63.89
2018-05-09T05:09:47.920Z,63.89
2018-05-09T05:10:57.743Z,64.18
2018-05-09T05:12:07.882Z,63.8
2018-05-09T05:13:18.042Z,63.6
2018-05-09T05:14:28.246Z,64.18
2018-05-09T05:15:38.550Z,63.83
2018-05-09T05:16:48.723Z,63.83
2018-05-09T05:17:58.491Z,64.02
2018-05-09T05:19:08.638Z,63.89
2018-05-09T05:20:18.792Z,63.73
2018-05-09T05:21:29.001Z,63.35
2018-05-09T05:22:39.162Z,63.45
2018-05-09T05:23:50.716Z,63.16
2018-05-09T05:25:02.361Z,63.26
2018-05-09T05:26:12.542Z,63.54
2018-05-09T05:27:22.659Z,63.45
2018-05-09T05:28:32.796Z,63.06
2018-05-09T05:29:42.414Z,63.06
2018-05-09T05:30:52.595Z,62.87
2018-05-09T05:32:02.745Z,62.77
2018-05-09T05:33:12.907Z,62.77
2018-05-09T05:34:23.355Z,62.77
2018-05-09T05:35:33.503Z,63.09
2018-05-09T05:36:43.681Z,62.52
2018-05-09T05:37:53.849Z,62.62
2018-05-09T05:39:03.716Z,62.71
2018-05-09T05:40:13.936Z,62.42
2018-05-09T05:41:24.154Z,62.62
2018-05-09T05:42:33.829Z,62.23
2018-05-09T05:43:44.009Z,61.94
2018-05-09T05:44:54.213Z,61.78
2018-05-09T05:46:06.350Z,62.16
2018-05-09T05:47:16.665Z,61.69
2018-05-09T05:48:26.818Z,61.3
2018-05-09T05:49:37.012Z,61.49
2018-05-09T05:52:01.163Z,61.02
2018-05-09T05:53:12.285Z,60.92
2018-05-09T05:54:22.191Z,60.95
2018-05-09T05:55:32.323Z,61.05
2018-05-09T05:56:42.480Z,61.14
2018-05-09T05:57:52.661Z,60.85
2018-05-09T05:59:02.801Z,60.47
2018-05-09T06:00:12.975Z,60.95
2018-05-09T06:01:23.225Z,60.18
2018-05-09T06:02:33.432Z,60.66
2018-05-09T06:03:43.660Z,60.28
2018-05-09T06:04:53.856Z,60.57
2018-05-09T06:06:04.054Z,60.18
2018-05-09T06:07:14.179Z,60.08
2018-05-09T06:08:24.344Z,60.02
2018-05-09T06:09:34.581Z,60.28
2018-05-09T06:10:44.723Z,60.4
2018-05-09T06:11:54.858Z,59.64
2018-05-09T06:13:05.010Z,59.64
2018-05-09T06:14:15.185Z,59.54
2018-05-09T06:15:25.413Z,59.92
2018-05-09T06:16:35.621Z,59.64
2018-05-09T06:17:45.919Z,59.83
2018-05-09T06:18:56.228Z,59.44
2018-05-09T06:20:06.105Z,59.25
2018-05-09T06:21:16.262Z,58.96
2018-05-09T06:22:26.507Z,58.89
2018-05-09T06:23:36.408Z,58.32
2018-05-09T06:24:46.606Z,57.93
2018-05-09T06:25:56.914Z,57.36
2018-05-09T06:27:07.126Z,57.07
2018-05-09T06:28:17.458Z,57.45
2018-05-09T06:29:27.359Z,57.36
2018-05-09T06:30:37.491Z,56.78
2018-05-09T06:31:47.644Z,57
2018-05-09T06:32:57.776Z,57.1
2018-05-09T06:34:07.986Z,56.71
2018-05-09T06:35:18.196Z,56.04
2018-05-09T06:36:28.482Z,55.56
2018-05-09T06:37:43.196Z,55.37
2018-05-09T06:38:53.684Z,55.27
2018-05-09T06:40:03.619Z,55.46
2018-05-09T06:41:13.494Z,55.08
2018-05-09T06:42:23.636Z,55.18
2018-05-09T06:43:33.513Z,54.91
2018-05-09T06:44:43.931Z,54.41
2018-05-09T06:45:54.097Z,54.34
2018-05-09T06:47:04.350Z,54.05
2018-05-09T06:48:14.649Z,54.05
2018-05-09T06:49:24.812Z,54.14
2018-05-09T06:50:35.935Z,53.96
2018-05-09T06:51:45.814Z,54.24
2018-05-09T06:52:55.959Z,54.14
2018-05-09T06:54:06.132Z,53.57
2018-05-09T06:55:16.296Z,53.57
2018-05-09T06:56:26.447Z,53.57
2018-05-09T06:57:36.602Z,53.09
2018-05-09T06:58:46.267Z,53.09
2018-05-09T06:59:56.572Z,53.28
2018-05-09T07:01:07.057Z,53.76
2018-05-09T07:02:17.319Z,53.28
2018-05-09T07:03:27.473Z,53.28
2018-05-09T07:04:37.648Z,53.28
2018-05-09T07:05:47.929Z,53.28
2018-05-09T07:06:58.118Z,53.02
2018-05-09T07:08:08.358Z,53.4
2018-05-09T07:09:18.537Z,52.83
2018-05-09T07:10:28.885Z,53.02
2018-05-09T07:11:39.079Z,52.83
2018-05-09T07:12:49.309Z,52.92
2018-05-09T07:13:59.475Z,53.31
2018-05-09T07:15:09.674Z,52.92
2018-05-09T07:16:20.900Z,53.5
2018-05-09T07:17:30.844Z,53.05
2018-05-09T07:18:40.986Z,52.56
2018-05-09T07:19:51.146Z,52.66
2018-05-09T07:21:01.288Z,52.66
2018-05-09T07:22:11.684Z,52.56
2018-05-09T07:23:22.211Z,52.47
2018-05-09T07:24:32.386Z,52.47
2018-05-09T07:25:42.699Z,52.47
2018-05-09T07:26:52.918Z,52.59
2018-05-09T07:28:02.808Z,52.3
2018-05-09T07:29:13.013Z,52.11
2018-05-09T07:30:23.155Z,52.3
2018-05-09T07:31:33.042Z,51.62
2018-05-09T07:32:43.164Z,52.01
2018-05-09T07:33:53.335Z,51.82
2018-05-09T07:35:03.472Z,52.01
2018-05-09T07:36:13.724Z,51.62
2018-05-09T07:37:23.640Z,51.62
2018-05-09T07:38:33.801Z,51.72
2018-05-09T07:39:44.048Z,51.62
2018-05-09T07:40:54.200Z,51.43
2018-05-09T07:42:17.073Z,51.43
2018-05-09T07:43:27.260Z,51.72
2018-05-09T07:44:37.085Z,51.24
2018-05-09T07:45:47.329Z,51.24
2018-05-09T07:46:57.482Z,51.65
2018-05-09T07:48:07.630Z,51.94
2018-05-09T07:49:17.850Z,52.04
2018-05-09T07:50:28.061Z,51.26
2018-05-09T07:51:38.339Z,51.26
2018-05-09T07:52:48.489Z,51.46
2018-05-09T07:53:58.760Z,51.07
2018-05-09T07:55:08.737Z,51.07
2018-05-09T07:56:18.866Z,50.81
2018-05-09T07:57:29.025Z,50.81
2018-05-09T07:58:38.917Z,50.52
2018-05-09T07:59:49.053Z,50.62
2018-05-09T08:00:59.201Z,50.32
2018-05-09T08:02:09.366Z,50.62
2018-05-09T08:03:19.365Z,50.62
2018-05-09T08:04:30.485Z,50.45
2018-05-09T08:05:40.469Z,50.54
2018-05-09T08:06:50.599Z,50.45
2018-05-09T08:08:00.776Z,49.87
2018-05-09T08:09:11.064Z,49.6
2018-05-09T08:10:21.054Z,49.51
2018-05-09T08:11:31.205Z,49.51
2018-05-09T08:12:41.372Z,49.22
2018-05-09T08:13:51.019Z,48.93
2018-05-09T08:15:01.181Z,49.02
2018-05-09T08:16:11.076Z,49.34
2018-05-09T08:17:20.713Z,48.66
2018-05-09T08:18:30.489Z,48.66
2018-05-09T08:19:40.707Z,48.49
2018-05-09T08:20:50.610Z,48.01
2018-05-09T08:22:00.738Z,48.01
2018-05-09T08:23:10.878Z,47.16
2018-05-09T08:24:21.049Z,46.61
2018-05-09T08:25:30.982Z,46.42
2018-05-09T08:26:41.115Z,46.05
2018-05-09T08:27:51.275Z,45.95
2018-05-09T08:29:01.519Z,45.88
2018-05-09T08:30:11.690Z,45.4
2018-05-09T08:31:21.769Z,44.16
2018-05-09T08:32:32.146Z,43.21
2018-05-09T08:33:42.306Z,42.38
2018-05-09T08:34:52.502Z,41.18
2018-05-09T08:36:02.784Z,40.06
2018-05-09T08:37:13.091Z,38.83
2018-05-09T08:38:23.003Z,38.26
2018-05-09T08:39:33.188Z,37.23
2018-05-09T08:40:43.340Z,36.66
2018-05-09T08:41:53.270Z,35.8
2018-05-09T08:43:03.268Z,34.65
2018-05-09T08:44:13.479Z,34.67
2018-05-09T08:45:23.699Z,33.8
2018-05-09T08:46:33.850Z,33.51
2018-05-09T08:47:44.072Z,33.23
2018-05-09T08:48:54.238Z,32.56
2018-05-09T08:50:04.444Z,31.51
2018-05-09T08:51:14.869Z,31.21
2018-05-09T08:52:24.748Z,31.1
2018-05-09T08:53:34.928Z,30.9
2018-05-09T08:54:45.105Z,30.52
2018-05-09T08:55:55.247Z,29.66
2018-05-09T08:57:05.420Z,29.07
2018-05-09T08:58:15.571Z,28.59
2018-05-09T08:59:25.742Z,28.5
2018-05-09T09:00:35.685Z,28.69
2018-05-09T09:01:45.845Z,28.79
2018-05-09T09:02:55.696Z,28.4
2018-05-09T09:04:05.850Z,27.63
2018-05-09T09:05:15.462Z,28.02
2018-05-09T09:06:25.757Z,28.01
2018-05-09T09:07:36.446Z,27.73
2018-05-09T09:08:46.356Z,27.83
2018-05-09T09:09:56.518Z,27.04
2018-05-09T09:11:06.677Z,27.24
2018-05-09T09:12:16.844Z,27.34
2018-05-09T09:13:27.168Z,27.92
2018-05-09T09:14:37.342Z,27.15
2018-05-09T09:15:47.164Z,26.56
2018-05-09T09:16:59.090Z,26.28
2018-05-09T09:18:08.999Z,26.1
2018-05-09T09:19:18.963Z,25.22
2018-05-09T09:20:29.163Z,25.9
2018-05-09T09:21:39.372Z,26
2018-05-09T09:22:49.285Z,25.9
2018-05-09T09:23:59.563Z,25.92
2018-05-09T09:25:09.716Z,25.43
2018-05-09T09:26:19.913Z,24.84
2018-05-09T09:27:30.088Z,25.43
2018-05-09T09:28:40.353Z,25.62
2018-05-09T09:29:50.259Z,24.85
2018-05-09T09:31:00.432Z,25.24
2018-05-09T09:32:10.634Z,25.24
2018-05-09T09:33:20.801Z,25.26
2018-05-09T09:34:31.190Z,25.35
2018-05-09T09:35:41.410Z,25.26
2018-05-09T09:36:51.580Z,25.16
2018-05-09T09:38:02.342Z,25.05
2018-05-09T09:39:12.391Z,25.24
2018-05-09T09:40:22.574Z,25.62
2018-05-09T09:41:32.935Z,25.99
2018-05-09T09:42:42.905Z,26.38
2018-05-09T09:43:53.096Z,26.4
2018-05-09T09:45:03.111Z,26
2018-05-09T09:46:13.279Z,25.92
2018-05-09T09:47:24.211Z,25.52
2018-05-09T09:48:41.623Z,25.33
2018-05-09T09:49:51.792Z,25.33
2018-05-09T09:51:01.935Z,25.51
2018-05-09T09:52:12.172Z,25.71
2018-05-09T09:53:22.426Z,25.81
2018-05-09T09:54:32.642Z,25.89
2018-05-09T09:55:42.835Z,26
2018-05-09T09:56:53.035Z,26
2018-05-09T09:58:03.323Z,25.81
2018-05-09T09:59:13.488Z,25.83
2018-05-09T10:00:23.738Z,25.24
2018-05-09T10:01:34.100Z,25.05
2018-05-09T10:02:44.195Z,24.96
2018-05-09T10:03:54.385Z,25.27
2018-05-09T10:05:04.743Z,25.05
2018-05-09T10:06:14.916Z,25.37
2018-05-09T10:07:25.155Z,25.07
2018-05-09T10:08:36.285Z,25.17
2018-05-09T10:09:46.195Z,24.77
2018-05-09T10:10:56.370Z,24.76
2018-05-09T10:12:06.542Z,24.95
2018-05-09T10:13:16.801Z,24.93
2018-05-09T10:14:27.021Z,24.93
2018-05-09T10:15:36.988Z,25.23
2018-05-09T10:16:47.213Z,25.03
2018-05-09T10:17:57.462Z,25.22
2018-05-09T10:19:07.688Z,25.02
2018-05-09T10:20:17.939Z,25.13
2018-05-09T10:21:28.203Z,25.33
2018-05-09T10:22:38.401Z,25.13
2018-05-09T10:23:48.590Z,25.04
2018-05-09T10:24:58.836Z,24.85
2018-05-09T10:26:09.123Z,24.95
2018-05-09T10:27:19.300Z,25.32
2018-05-09T10:28:29.503Z,25.4
2018-05-09T10:29:39.434Z,25.79
2018-05-09T10:30:49.598Z,25.7
2018-05-09T10:31:59.773Z,26.09
2018-05-09T10:33:09.988Z,26.26
2018-05-09T10:34:20.218Z,26.06
2018-05-09T10:35:30.172Z,26.27
2018-05-09T10:36:40.353Z,26.26
2018-05-09T10:37:50.504Z,26.16
2018-05-09T10:39:00.679Z,25.88
2018-05-09T10:40:10.899Z,25.78
2018-05-09T10:41:21.159Z,25.01
2018-05-09T10:42:31.346Z,24.91
2018-05-09T10:43:41.526Z,24.81
2018-05-09T10:44:51.425Z,24.81
2018-05-09T10:46:01.082Z,24.51
2018-05-09T10:47:11.297Z,24.59
2018-05-09T10:48:21.460Z,24.87
2018-05-09T10:49:31.359Z,24.96
2018-05-09T10:50:41.634Z,24.96
2018-05-09T10:51:52.095Z,25.37
2018-05-09T10:53:02.283Z,25.07
2018-05-09T10:54:12.467Z,25.27
2018-05-09T10:55:22.368Z,25.18
2018-05-09T10:56:32.550Z,24.69
2018-05-09T10:57:42.705Z,25.18
2018-05-09T10:58:52.953Z,24.98
2018-05-09T11:00:03.113Z,25.09
2018-05-09T11:01:13.583Z,24.79
2018-05-09T11:02:23.743Z,24.79
2018-05-09T11:03:33.893Z,25.07
2018-05-09T11:04:44.057Z,24.77
2018-05-09T11:05:54.221Z,25.27
2018-05-09T11:07:04.404Z,25.45
2018-05-09T11:08:14.679Z,25.73
2018-05-09T11:09:24.919Z,26.12
2018-05-09T11:10:35.303Z,26.2
2018-05-09T11:11:45.924Z,26.39
2018-05-09T11:12:55.951Z,26.4
2018-05-09T11:14:06.182Z,26.78
2018-05-09T11:15:16.407Z,26.49
2018-05-09T11:16:26.305Z,26.77
2018-05-09T11:17:36.607Z,26.76
2018-05-09T11:18:47.069Z,27.83
2018-05-09T11:19:57.224Z,27.83
2018-05-09T11:21:07.401Z,27.34
2018-05-09T11:22:17.358Z,27.93
2018-05-09T11:23:27.587Z,27.73
2018-05-09T11:24:37.464Z,27.83
2018-05-09T11:25:47.885Z,27.16
2018-05-09T11:26:58.058Z,27.16
2018-05-09T11:28:08.273Z,26.57
2018-05-09T11:29:18.680Z,26.87
2018-05-09T11:30:28.959Z,27.16
2018-05-09T11:31:40.102Z,26.97
2018-05-09T11:32:50.267Z,27.93
2018-05-09T11:33:59.811Z,27.81
2018-05-09T11:35:09.776Z,28.5
2018-05-09T11:36:20.014Z,28.49
2018-05-09T11:37:30.382Z,28.3
2018-05-09T11:38:40.323Z,28.4
2018-05-09T11:39:50.343Z,28.69
2018-05-09T11:41:00.347Z,28.78
2018-05-09T11:42:10.609Z,29.56
2018-05-09T11:43:20.765Z,29.25
2018-05-09T11:44:31.020Z,29.74
2018-05-09T11:45:41.201Z,29.44
2018-05-09T11:46:51.358Z,29.64
2018-05-09T11:48:01.544Z,29.64
2018-05-09T11:49:11.496Z,29.74
2018-05-09T11:50:21.734Z,29.66
2018-05-09T11:51:31.623Z,29.44
2018-05-09T11:52:41.760Z,29.44
2018-05-09T11:53:51.673Z,30.21
2018-05-09T11:55:01.817Z,30.41
2018-05-09T11:56:11.977Z,30.88
2018-05-09T11:57:22.122Z,31.17
2018-05-09T11:58:32.117Z,31.64
2018-05-09T11:59:42.316Z,31.63
2018-05-09T12:00:52.522Z,32.31
2018-05-09T12:02:02.742Z,32.29
2018-05-09T12:03:12.661Z,32.1
2018-05-09T12:04:22.876Z,33.07
2018-05-09T12:05:33.093Z,32.78
2018-05-09T12:06:43.004Z,33.26
2018-05-09T12:07:53.178Z,33.07
2018-05-09T12:09:03.383Z,32.5
2018-05-09T12:10:13.309Z,32.7
2018-05-09T12:11:23.733Z,32.6
2018-05-09T12:12:33.926Z,32.5
2018-05-09T12:13:44.116Z,32.5
2018-05-09T12:14:54.342Z,32.4
2018-05-09T12:16:04.505Z,32.5
2018-05-09T12:17:14.659Z,32.79
2018-05-09T12:18:25.004Z,33.09
2018-05-09T12:19:34.909Z,33.09
2018-05-09T12:20:45.064Z,33.28
2018-05-09T12:21:55.235Z,33.46
2018-05-09T12:23:05.416Z,33.46
2018-05-09T12:24:15.649Z,33.46
2018-05-09T12:25:25.806Z,33.46
2018-05-09T12:26:36.129Z,33.75
2018-05-09T12:27:46.378Z,33.65
2018-05-09T12:28:56.545Z,34.14
2018-05-09T12:30:06.722Z,34.53
2018-05-09T12:31:16.962Z,34.61
2018-05-09T12:32:27.213Z,34.42
2018-05-09T12:33:37.372Z,34.8
2018-05-09T12:34:47.569Z,34.8
2018-05-09T12:35:57.732Z,34.88
2018-05-09T12:37:07.916Z,34.52
2018-05-09T12:38:18.077Z,34.98
2018-05-09T12:39:28.226Z,34.88
2018-05-09T12:40:38.384Z,35.17
2018-05-09T12:41:48.527Z,35.08
2018-05-09T12:42:58.777Z,35.17
2018-05-09T12:44:08.916Z,35.08
2018-05-09T12:45:19.183Z,35.08
2018-05-09T12:46:29.389Z,34.59
2018-05-09T12:47:39.651Z,34.7
2018-05-09T12:48:50.347Z,34.52
2018-05-09T12:50:01.208Z,34.42
2018-05-09T12:51:11.364Z,34.61
2018-05-09T12:52:20.914Z,34.12
2018-05-09T12:53:31.081Z,34.03
2018-05-09T12:54:40.816Z,34.12
2018-05-09T12:55:51.201Z,34.12
2018-05-09T12:57:01.542Z,34.52
2018-05-09T12:58:11.733Z,34.5
2018-05-09T12:59:21.885Z,34.59
2018-05-09T13:00:32.317Z,34.69
2018-05-09T13:01:42.657Z,34.87
2018-05-09T13:02:52.981Z,34.67
2018-05-09T13:04:03.213Z,34.87
2018-05-09T13:05:13.434Z,34.97
2018-05-09T13:06:23.068Z,35.45
2018-05-09T13:07:33.260Z,35.72
2018-05-09T13:08:43.468Z,35.72
2018-05-09T13:09:53.607Z,35.82
2018-05-09T13:11:03.801Z,35.82
2018-05-09T13:12:13.742Z,36.21
2018-05-09T13:13:23.808Z,36.11
2018-05-09T13:14:34.052Z,36.19
2018-05-09T13:15:44.209Z,36.11
2018-05-09T13:16:54.371Z,36.29
2018-05-09T13:18:04.275Z,36.38
2018-05-09T13:19:14.541Z,36.48
2018-05-09T13:20:24.717Z,36.68
2018-05-09T13:21:34.420Z,36.87
2018-05-09T13:22:44.817Z,36.87
2018-05-09T13:23:55.015Z,36.87
2018-05-09T13:25:04.943Z,36.97
2018-05-09T13:26:15.097Z,36.87
2018-05-09T13:27:25.268Z,36.77
2018-05-09T13:28:34.900Z,36.89
2018-05-09T13:29:44.695Z,37.26
2018-05-09T13:30:54.873Z,37.07
2018-05-09T13:32:04.806Z,37.26
2018-05-09T13:33:14.727Z,37.74
2018-05-09T13:34:24.634Z,37.55
2018-05-09T13:35:34.819Z,37.65
2018-05-09T13:36:44.770Z,37.45
2018-05-09T13:37:54.934Z,37.74
2018-05-09T13:39:05.131Z,37.84
2018-05-09T13:40:15.429Z,37.74
2018-05-09T13:41:25.438Z,37.35
2018-05-09T13:42:35.634Z,37.55
2018-05-09T13:43:45.788Z,37.65
2018-05-09T13:44:55.949Z,37.65
2018-05-09T13:46:06.225Z,37.84
2018-05-09T13:47:16.912Z,37.37
2018-05-09T13:48:27.095Z,36.79
2018-05-09T13:49:37.292Z,36.89
2018-05-09T13:50:47.442Z,36.79
2018-05-09T13:51:57.605Z,36.89
2018-05-09T13:53:07.542Z,36.91
2018-05-09T13:54:17.439Z,36.61
2018-05-09T13:55:27.760Z,37.01
2018-05-09T13:56:37.971Z,37.01
2018-05-09T13:57:47.809Z,36.61
2018-05-09T13:58:58.002Z,36.61
2018-05-09T14:00:07.679Z,36.61
2018-05-09T14:01:17.489Z,36.71
2018-05-09T14:02:27.524Z,36.91
2018-05-09T14:03:37.761Z,36.71
2018-05-09T14:04:48.081Z,36.81
2018-05-09T14:05:58.321Z,36.5
2018-05-09T14:07:08.553Z,36.71
2018-05-09T14:08:18.735Z,37.01
2018-05-09T14:09:28.891Z,36.99
2018-05-09T14:10:39.062Z,37.18
2018-05-09T14:11:48.957Z,37.76
2018-05-09T14:12:58.947Z,37.37
2018-05-09T14:14:09.188Z,37.37
2018-05-09T14:15:19.382Z,37.66
2018-05-09T14:16:29.732Z,37.57
2018-05-09T14:17:39.636Z,37.66
2018-05-09T14:18:49.820Z,37.37
2018-05-09T14:19:59.742Z,37.18
2018-05-09T14:21:09.926Z,37.37
2018-05-09T14:22:20.098Z,37.49
2018-05-09T14:23:30.233Z,37.57
2018-05-09T14:24:40.390Z,37.68
2018-05-09T14:25:50.579Z,37.3
2018-05-09T14:27:00.785Z,37.59
2018-05-09T14:28:10.993Z,37.39
2018-05-09T14:29:21.175Z,37.1
2018-05-09T14:30:31.333Z,37.1
2018-05-09T14:31:41.587Z,37.3
2018-05-09T14:32:51.847Z,36.81
2018-05-09T14:34:02.030Z,36.91
2018-05-09T14:35:12.274Z,36.91
2018-05-09T14:36:22.494Z,36.91
2018-05-09T14:37:32.684Z,36.71
2018-05-09T14:38:42.572Z,36.73
2018-05-09T14:39:52.791Z,36.71
2018-05-09T14:41:02.974Z,36.61
2018-05-09T14:42:13.130Z,36.61
2018-05-09T14:43:23.339Z,36.71
2018-05-09T14:44:33.541Z,36.71
2018-05-09T14:45:43.735Z,36.79
2018-05-09T14:46:53.904Z,36.99
2018-05-09T14:48:04.072Z,36.79
2018-05-09T14:49:14.231Z,36.89
2018-05-09T14:50:24.391Z,37.08
2018-05-09T14:51:34.546Z,37.37
2018-05-09T14:52:44.751Z,37.18
2018-05-09T14:53:54.917Z,36.79
2018-05-09T14:55:04.815Z,37.37
2018-05-09T14:56:14.999Z,37.57
2018-05-09T14:57:24.353Z,37.28
2018-05-09T14:58:34.528Z,37.37
2018-05-09T14:59:44.697Z,37.18
2018-05-09T15:00:54.892Z,37.08
2018-05-09T15:02:06.080Z,37.28
2018-05-09T15:03:15.981Z,37.57
2018-05-09T15:04:25.596Z,37.74
2018-05-09T15:05:35.781Z,37.47
2018-05-09T15:06:46.019Z,37.57
2018-05-09T15:07:55.972Z,37.55
2018-05-09T15:09:06.177Z,37.74